createdAt,value
2022-08-11T00:01:13.946Z,17.87
2022-08-11T00:03:48.781Z,17.89
2022-08-11T00:06:25.673Z,17.92
2022-08-11T00:08:55.163Z,17.93
2022-08-11T00:11:35.106Z,18.01
2022-08-11T00:14:04.943Z,18.04
2022-08-11T00:16:34.226Z,18.05
2022-08-11T00:19:04.145Z,18.06
2022-08-11T00:22:04.561Z,17.98
2022-08-11T00:24:34.623Z,17.97
2022-08-11T00:27:34.095Z,17.95
2022-08-11T00:30:02.474Z,17.86
2022-08-11T00:32:31.946Z,17.84
2022-08-11T00:35:53.848Z,17.82
2022-08-11T00:37:52.082Z,17.79
2022-08-11T00:40:27.127Z,17.84
2022-08-11T00:43:10.777Z,17.78
2022-08-11T00:46:07.583Z,17.84
2022-08-11T00:48:46.501Z,17.81
2022-08-11T00:51:27.005Z,17.82
2022-08-11T00:54:45.216Z,17.80
2022-08-11T00:57:39.159Z,17.76
2022-08-11T01:00:17.508Z,17.84
2022-08-11T01:03:09.891Z,17.86
2022-08-11T01:05:57.773Z,17.98
2022-08-11T01:08:59.646Z,18.01
2022-08-11T01:11:56.386Z,18.06
2022-08-11T01:14:41.838Z,18.01
2022-08-11T01:17:48.926Z,17.91
2022-08-11T01:20:48.669Z,17.84
2022-08-11T01:23:57.158Z,17.80
2022-08-11T01:27:19.314Z,17.88
2022-08-11T01:30:24.024Z,17.89
2022-08-11T01:33:21.776Z,17.94
2022-08-11T01:36:25.915Z,17.96
2022-08-11T01:39:19.876Z,17.98
2022-08-11T01:42:36.203Z,17.83
2022-08-11T01:45:12.796Z,17.82
2022-08-11T01:47:54.811Z,17.88
2022-08-11T01:50:32.674Z,17.89
2022-08-11T01:53:11.507Z,17.92
2022-08-11T01:55:48.782Z,17.93
2022-08-11T01:58:21.650Z,17.92
2022-08-11T02:01:28.857Z,17.87
2022-08-11T02:04:11.280Z,17.81
2022-08-11T02:06:58.565Z,17.86
2022-08-11T02:09:49.597Z,17.83
2022-08-11T02:12:38.127Z,17.87
2022-08-11T02:15:16.739Z,17.98
2022-08-11T02:17:55.659Z,17.93
2022-08-11T02:20:44.897Z,17.90
2022-08-11T02:23:59.651Z,17.88
2022-08-11T02:26:37.743Z,18.01
2022-08-11T02:29:17.035Z,18.01
2022-08-11T02:32:28.740Z,17.97
2022-08-11T02:35:05.868Z,17.99
2022-08-11T02:37:47.158Z,18.03
2022-08-11T02:40:26.224Z,18.02
2022-08-11T02:43:10.351Z,17.99
2022-08-11T02:45:54.689Z,18.05
2022-08-11T02:48:52.066Z,18.15
2022-08-11T02:51:31.481Z,18.10
2022-08-11T02:54:10.619Z,18.09
2022-08-11T02:56:46.664Z,18.07
2022-08-11T02:59:43.838Z,18.13
2022-08-11T03:02:19.308Z,18.13
2022-08-11T03:05:00.365Z,18.12
2022-08-11T03:07:35.170Z,18.16
2022-08-11T03:10:11.484Z,18.08
2022-08-11T03:13:03.292Z,18.16
2022-08-11T03:16:06.141Z,18.17
2022-08-11T03:18:42.512Z,18.17
2022-08-11T03:22:01.563Z,18.22
2022-08-11T03:24:26.889Z,18.22
2022-08-11T03:27:11.179Z,18.26
2022-08-11T03:29:50.260Z,18.36
2022-08-11T03:32:30.033Z,18.45
2022-08-11T03:35:01.521Z,18.62
2022-08-11T03:37:52.095Z,18.95
2022-08-11T03:40:54.644Z,19.31
2022-08-11T03:43:58.123Z,19.50
2022-08-11T03:46:39.758Z,19.49
2022-08-11T03:49:24.742Z,19.34
2022-08-11T03:51:57.780Z,19.42
2022-08-11T03:54:34.841Z,19.87
2022-08-11T03:57:35.002Z,20.11
2022-08-11T04:00:22.056Z,20.14
2022-08-11T04:03:11.026Z,19.87
2022-08-11T04:06:28.826Z,20.14
2022-08-11T04:09:38.325Z,20.97
2022-08-11T04:12:35.954Z,21.43
2022-08-11T04:16:11.766Z,21.65
2022-08-11T04:19:31.218Z,21.09
2022-08-11T04:22:20.231Z,21.48
2022-08-11T04:25:17.337Z,21.86
2022-08-11T04:28:29.113Z,20.76
2022-08-11T04:31:44.196Z,20.72
2022-08-11T04:34:37.519Z,20.72
2022-08-11T04:37:35.595Z,21.24
2022-08-11T04:40:45.419Z,21.13
2022-08-11T04:44:07.010Z,21.02
2022-08-11T04:48:03.741Z,21.10
2022-08-11T04:51:15.994Z,23.29
2022-08-11T04:54:31.561Z,24.48
2022-08-11T04:57:30.905Z,23.07
2022-08-11T05:00:24.403Z,22.88
2022-08-11T05:03:19.035Z,22.68
2022-08-11T05:06:11.237Z,23.17
2022-08-11T05:09:03.996Z,25.16
2022-08-11T05:12:16.677Z,25.89
2022-08-11T05:15:08.476Z,26.81
2022-08-11T05:17:59.351Z,27.37
2022-08-11T05:20:46.377Z,28.04
2022-08-11T05:23:34.160Z,28.31
2022-08-11T05:26:46.017Z,28.09
2022-08-11T05:29:55.659Z,28.73
2022-08-11T05:32:42.497Z,28.81
2022-08-11T05:35:18.528Z,28.65
2022-08-11T05:38:20.012Z,29.02
2022-08-11T05:41:10.641Z,29.97
2022-08-11T05:44:21.413Z,29.26
2022-08-11T05:47:09.320Z,30.95
2022-08-11T05:49:58.117Z,31.46
2022-08-11T05:52:46.987Z,31.11
2022-08-11T05:55:35.801Z,31.70
2022-08-11T05:58:23.017Z,30.35
2022-08-11T06:00:54.149Z,30.77
2022-08-11T06:03:27.404Z,31.59
2022-08-11T06:05:57.566Z,31.42
2022-08-11T06:08:31.273Z,28.15
2022-08-11T06:11:04.915Z,26.61
2022-08-11T06:13:33.971Z,28.01
2022-08-11T06:16:06.982Z,29.44
2022-08-11T06:18:36.411Z,28.82
2022-08-11T06:21:12.515Z,30.66
2022-08-11T06:23:42.756Z,31.86
2022-08-11T06:26:11.835Z,31.17
2022-08-11T06:28:42.413Z,29.20
2022-08-11T06:31:16.561Z,30.60
2022-08-11T06:33:57.455Z,30.36
2022-08-11T06:36:50.143Z,28.96
2022-08-11T06:39:25.685Z,25.78
2022-08-11T06:42:00.596Z,24.63
2022-08-11T06:44:32.980Z,24.05
2022-08-11T06:47:12.505Z,23.96
2022-08-11T06:50:03.849Z,23.51
2022-08-11T06:52:36.411Z,24.02
2022-08-11T06:55:56.642Z,23.50
2022-08-11T06:58:16.573Z,23.82
2022-08-11T07:00:47.319Z,23.94
2022-08-11T07:03:20.890Z,23.96
2022-08-11T07:05:56.034Z,25.79
2022-08-11T07:09:29.717Z,26.50
2022-08-11T07:12:52.766Z,27.72
2022-08-11T07:16:09.058Z,27.69
2022-08-11T07:18:50.468Z,28.40
2022-08-11T07:22:02.746Z,27.92
2022-08-11T07:25:02.038Z,28.56
2022-08-11T07:27:55.052Z,26.73
2022-08-11T07:30:26.289Z,26.21
2022-08-11T07:32:56.309Z,26.17
2022-08-11T07:35:32.726Z,26.90
2022-08-11T07:38:07.242Z,28.31
2022-08-11T07:40:37.687Z,29.07
2022-08-11T07:43:08.116Z,29.51
2022-08-11T07:45:54.404Z,29.20
2022-08-11T07:48:40.535Z,28.75
2022-08-11T07:51:28.400Z,27.31
2022-08-11T07:54:03.025Z,27.20
2022-08-11T07:57:07.368Z,26.97
2022-08-11T08:00:03.820Z,26.94
2022-08-11T08:02:49.842Z,26.15
2022-08-11T08:05:37.448Z,26.52
2022-08-11T08:08:27.324Z,26.14
2022-08-11T08:11:15.337Z,25.16
2022-08-11T08:14:02.193Z,25.68
2022-08-11T08:16:49.237Z,25.35
2022-08-11T08:19:20.814Z,25.47
2022-08-11T08:21:49.852Z,25.71
2022-08-11T08:24:21.448Z,25.45
2022-08-11T08:27:00.007Z,25.77
2022-08-11T08:29:48.464Z,25.79
2022-08-11T08:32:18.689Z,25.59
2022-08-11T08:34:48.231Z,25.49
2022-08-11T08:37:45.506Z,25.73
2022-08-11T08:40:12.033Z,25.80
2022-08-11T08:42:48.009Z,26.00
2022-08-11T08:45:18.661Z,26.04
2022-08-11T08:47:53.214Z,26.19
2022-08-11T08:50:46.977Z,25.83
2022-08-11T08:53:21.984Z,25.86
2022-08-11T08:55:57.369Z,26.23
2022-08-11T08:58:26.802Z,26.61
2022-08-11T09:00:58.117Z,26.51
2022-08-11T09:04:06.788Z,26.18
2022-08-11T09:06:17.871Z,26.51
2022-08-11T09:08:49.690Z,26.41
2022-08-11T09:11:42.625Z,26.67
2022-08-11T09:14:15.044Z,26.85
2022-08-11T09:16:45.071Z,26.94
2022-08-11T09:19:18.041Z,26.73
2022-08-11T09:22:08.845Z,26.51
2022-08-11T09:24:58.075Z,26.51
2022-08-11T09:27:28.678Z,26.55
2022-08-11T09:29:57.498Z,26.74
2022-08-11T09:32:29.380Z,27.13
2022-08-11T09:34:58.614Z,27.25
2022-08-11T09:37:55.270Z,27.30
2022-08-11T09:40:33.712Z,27.24
2022-08-11T09:43:23.857Z,27.40
2022-08-11T09:45:54.873Z,27.59
2022-08-11T09:48:26.573Z,27.67
2022-08-11T09:50:57.044Z,27.33
2022-08-11T09:53:36.433Z,27.15
2022-08-11T09:56:22.372Z,27.47
2022-08-11T09:58:52.853Z,27.93
2022-08-11T10:01:28.257Z,27.98
2022-08-11T10:04:05.251Z,27.62
2022-08-11T10:06:54.492Z,27.71
2022-08-11T10:09:26.083Z,27.77
2022-08-11T10:11:58.800Z,27.38
2022-08-11T10:14:47.100Z,27.53
2022-08-11T10:17:17.247Z,27.53
2022-08-11T10:20:03.984Z,27.57
2022-08-11T10:22:51.033Z,27.80
2022-08-11T10:25:37.236Z,28.02
2022-08-11T10:28:16.779Z,27.65
2022-08-11T10:31:16.404Z,27.77
2022-08-11T10:34:04.981Z,27.94
2022-08-11T10:36:40.297Z,28.18
2022-08-11T10:39:08.627Z,28.29
2022-08-11T10:42:08.701Z,28.32
2022-08-11T10:44:41.494Z,28.19
2022-08-11T10:47:31.826Z,28.14
2022-08-11T10:50:19.396Z,27.96
2022-08-11T10:53:08.218Z,28.19
2022-08-11T10:55:58.753Z,28.17
2022-08-11T10:58:45.432Z,28.29
2022-08-11T11:01:14.926Z,28.21
2022-08-11T11:03:45.908Z,28.31
2022-08-11T11:06:29.410Z,28.06
2022-08-11T11:09:04.473Z,27.99
2022-08-11T11:11:55.956Z,28.09
2022-08-11T11:14:50.814Z,27.73
2022-08-11T11:17:46.880Z,28.08
2022-08-11T11:20:34.473Z,28.26
2022-08-11T11:23:11.471Z,28.39
2022-08-11T11:26:11.306Z,28.42
2022-08-11T11:29:04.285Z,28.50
2022-08-11T11:31:47.281Z,28.48
2022-08-11T11:34:24.973Z,28.39
2022-08-11T11:36:58.794Z,28.62
2022-08-11T11:39:31.231Z,28.87
2022-08-11T11:42:03.307Z,28.77
2022-08-11T11:44:32.104Z,28.63
2022-08-11T11:47:01.830Z,28.46
2022-08-11T11:49:32.481Z,28.40
2022-08-11T11:52:02.778Z,28.43
2022-08-11T11:54:33.933Z,28.42
2022-08-11T11:57:25.915Z,28.56
2022-08-11T12:00:13.762Z,28.44
2022-08-11T12:02:43.163Z,28.32
2022-08-11T12:05:12.152Z,28.53
2022-08-11T12:08:10.601Z,28.58
2022-08-11T12:10:46.298Z,28.72
2022-08-11T12:13:32.569Z,28.53
2022-08-11T12:16:31.824Z,28.68
2022-08-11T12:18:55.417Z,28.81
2022-08-11T12:21:25.125Z,28.73
2022-08-11T12:24:16.148Z,28.68
2022-08-11T12:27:16.550Z,28.80
2022-08-11T12:29:54.485Z,28.88
2022-08-11T12:32:26.107Z,28.90
2022-08-11T12:34:57.357Z,28.89
2022-08-11T12:37:31.698Z,29.15
2022-08-11T12:40:43.207Z,28.78
2022-08-11T12:43:37.225Z,28.49
2022-08-11T12:46:09.064Z,28.77
2022-08-11T12:49:02.555Z,28.91
2022-08-11T12:52:11.190Z,29.08
2022-08-11T12:55:00.030Z,28.95
2022-08-11T12:57:50.890Z,28.97
2022-08-11T13:00:38.291Z,28.88
2022-08-11T13:03:26.909Z,28.44
2022-08-11T13:05:58.871Z,28.39
2022-08-11T13:08:29.643Z,28.55
2022-08-11T13:11:18.943Z,28.59
2022-08-11T13:13:55.968Z,28.62
2022-08-11T13:16:29.801Z,28.88
2022-08-11T13:19:01.316Z,28.70
2022-08-11T13:21:31.053Z,28.61
2022-08-11T13:24:03.051Z,28.75
2022-08-11T13:26:48.488Z,28.87
2022-08-11T13:29:26.713Z,28.66
2022-08-11T13:31:58.319Z,28.68
2022-08-11T13:34:28.356Z,28.43
2022-08-11T13:36:58.321Z,28.42
2022-08-11T13:39:29.713Z,28.34
2022-08-11T13:42:00.695Z,28.38
2022-08-11T13:44:32.902Z,28.56
2022-08-11T13:47:04.560Z,28.63
2022-08-11T13:49:35.103Z,28.87
2022-08-11T13:52:05.771Z,28.64
2022-08-11T13:54:38.568Z,28.63
2022-08-11T13:58:06.693Z,28.56
2022-08-11T14:00:12.188Z,28.66
2022-08-11T14:02:53.294Z,28.45
2022-08-11T14:05:26.944Z,28.52
2022-08-11T14:08:00.668Z,28.36
2022-08-11T14:10:33.009Z,28.37
2022-08-11T14:13:22.136Z,28.20
2022-08-11T14:15:54.615Z,28.48
2022-08-11T14:18:27.300Z,28.53
2022-08-11T14:21:14.592Z,28.39
2022-08-11T14:23:45.625Z,28.33
2022-08-11T14:26:27.066Z,28.07
2022-08-11T14:28:58.092Z,28.13
2022-08-11T14:31:32.086Z,28.07
2022-08-11T14:34:03.515Z,28.02
2022-08-11T14:36:35.151Z,27.99
2022-08-11T14:39:08.174Z,28.05
2022-08-11T14:42:12.569Z,28.01
2022-08-11T14:45:01.965Z,28.05
2022-08-11T14:47:35.128Z,28.06
2022-08-11T14:50:11.606Z,28.14
2022-08-11T14:52:45.900Z,28.17
2022-08-11T14:55:32.709Z,28.21
2022-08-11T14:58:03.301Z,28.32
2022-08-11T15:00:35.317Z,28.39
2022-08-11T15:03:12.959Z,28.35
2022-08-11T15:05:56.319Z,28.29
2022-08-11T15:08:42.761Z,28.28
2022-08-11T15:11:26.826Z,28.20
2022-08-11T15:13:56.391Z,28.14
2022-08-11T15:16:43.567Z,28.08
2022-08-11T15:19:14.354Z,27.91
2022-08-11T15:22:00.596Z,27.82
2022-08-11T15:24:31.220Z,27.72
2022-08-11T15:27:19.994Z,27.63
2022-08-11T15:30:07.972Z,27.56
2022-08-11T15:32:54.158Z,27.69
2022-08-11T15:35:42.770Z,27.68
2022-08-11T15:38:14.076Z,27.59
2022-08-11T15:41:02.122Z,27.49
2022-08-11T15:43:57.351Z,27.54
2022-08-11T15:46:32.981Z,27.62
2022-08-11T15:49:04.169Z,27.53
2022-08-11T15:51:38.710Z,27.65
2022-08-11T15:54:09.699Z,27.81
2022-08-11T15:56:41.219Z,27.96
2022-08-11T15:59:43.048Z,27.73
2022-08-11T16:02:34.484Z,27.61
2022-08-11T16:05:11.659Z,27.53
2022-08-11T16:07:43.285Z,27.48
2022-08-11T16:10:19.361Z,27.58
2022-08-11T16:13:22.291Z,27.39
2022-08-11T16:16:12.208Z,27.30
2022-08-11T16:18:51.587Z,27.19
2022-08-11T16:21:26.016Z,27.16
2022-08-11T16:27:04.127Z,27.11
2022-08-11T16:27:10.079Z,27.10
2022-08-11T16:29:45.752Z,27.17
2022-08-11T16:32:22.207Z,27.06
2022-08-11T16:35:16.503Z,27.11
2022-08-11T16:38:03.241Z,26.81
2022-08-11T16:40:34.946Z,26.72
2022-08-11T16:43:24.101Z,26.64
2022-08-11T16:46:13.073Z,26.64
2022-08-11T16:48:44.945Z,26.33
2022-08-11T16:51:14.555Z,26.38
2022-08-11T16:54:03.541Z,26.31
2022-08-11T16:56:38.291Z,26.24
2022-08-11T16:59:15.902Z,26.12
2022-08-11T17:01:48.728Z,26.11
2022-08-11T17:04:43.278Z,26.20
2022-08-11T17:07:42.287Z,26.17
2022-08-11T17:10:51.172Z,26.09
2022-08-11T17:13:30.608Z,25.91
2022-08-11T17:16:08.346Z,25.86
2022-08-11T17:18:43.578Z,25.86
2022-08-11T17:21:16.226Z,25.75
2022-08-11T17:24:05.094Z,25.57
2022-08-11T17:26:57.178Z,25.46
2022-08-11T17:29:30.256Z,25.41
2022-08-11T17:32:16.434Z,25.11
2022-08-11T17:35:07.435Z,24.99
2022-08-11T17:37:37.852Z,24.82
2022-08-11T17:40:12.591Z,24.75
2022-08-11T17:43:00.512Z,24.63
2022-08-11T17:45:55.919Z,24.70
2022-08-11T17:48:27.533Z,24.70
2022-08-11T17:50:59.251Z,24.69
2022-08-11T17:54:24.065Z,24.69
2022-08-11T17:57:20.126Z,24.67
2022-08-11T17:59:54.297Z,24.79
2022-08-11T18:02:47.209Z,24.87
2022-08-11T18:05:19.807Z,24.89
2022-08-11T18:08:08.085Z,24.94
2022-08-11T18:10:55.024Z,24.94
2022-08-11T18:13:42.888Z,24.93
2022-08-11T18:16:29.448Z,24.97
2022-08-11T18:19:16.496Z,24.89
2022-08-11T18:22:14.833Z,24.86
2022-08-11T18:25:12.267Z,24.87
2022-08-11T18:28:02.149Z,24.85
2022-08-11T18:30:53.831Z,24.75
2022-08-11T18:34:06.889Z,24.75
2022-08-11T18:36:59.347Z,24.82
2022-08-11T18:39:54.655Z,24.80
2022-08-11T18:42:43.994Z,24.77
2022-08-11T18:45:39.990Z,24.76
2022-08-11T18:48:37.396Z,24.67
2022-08-11T18:51:31.287Z,24.64
2022-08-11T18:54:28.545Z,24.61
2022-08-11T18:57:16.949Z,24.61
2022-08-11T19:00:05.172Z,24.49
2022-08-11T19:02:54.121Z,24.39
2022-08-11T19:06:32.174Z,24.51
2022-08-11T19:08:50.095Z,24.41
2022-08-11T19:11:42.865Z,24.36
2022-08-11T19:14:31.297Z,24.34
2022-08-11T19:17:44.172Z,24.27
2022-08-11T19:20:29.348Z,24.15
2022-08-11T19:23:16.538Z,24.11
2022-08-11T19:26:03.840Z,24.10
2022-08-11T19:28:53.350Z,24.01
2022-08-11T19:31:44.441Z,24.01
2022-08-11T19:34:32.025Z,23.92
2022-08-11T19:37:22.006Z,23.94
2022-08-11T19:40:11.550Z,23.90
2022-08-11T19:42:59.174Z,23.84
2022-08-11T19:45:51.197Z,23.82
2022-08-11T19:48:40.266Z,23.82
2022-08-11T19:51:27.482Z,23.75
2022-08-11T19:54:14.292Z,23.80
2022-08-11T19:57:02.803Z,23.80
2022-08-11T19:59:49.474Z,23.82
2022-08-11T20:02:36.386Z,23.75
2022-08-11T20:05:22.842Z,23.76
2022-08-11T20:08:09.514Z,23.76
2022-08-11T20:10:55.741Z,23.73
2022-08-11T20:13:44.928Z,23.69
2022-08-11T20:16:33.037Z,23.65
2022-08-11T20:19:26.271Z,23.68
2022-08-11T20:22:27.335Z,23.67
2022-08-11T20:25:14.324Z,23.75
2022-08-11T20:28:00.984Z,23.65
2022-08-11T20:30:48.679Z,23.71
2022-08-11T20:33:39.426Z,23.72
2022-08-11T20:36:27.576Z,23.66
2022-08-11T20:39:15.406Z,23.71
2022-08-11T20:42:01.357Z,23.66
2022-08-11T20:44:48.379Z,23.59
2022-08-11T20:47:56.259Z,23.57
2022-08-11T20:50:45.888Z,23.52
2022-08-11T20:53:36.147Z,23.41
2022-08-11T20:56:28.698Z,23.44
2022-08-11T20:59:18.445Z,23.46
2022-08-11T21:02:05.537Z,23.38
2022-08-11T21:04:56.717Z,23.31
2022-08-11T21:07:45.853Z,23.31
2022-08-11T21:10:46.770Z,23.22
2022-08-11T21:13:37.022Z,23.17
2022-08-11T21:16:27.206Z,23.09
2022-08-11T21:20:00.604Z,23.13
2022-08-11T21:22:28.565Z,23.11
2022-08-11T21:25:16.589Z,23.06
2022-08-11T21:28:06.637Z,23.06
2022-08-11T21:30:57.524Z,23.09
2022-08-11T21:33:46.086Z,22.98
2022-08-11T21:36:33.796Z,22.98
2022-08-11T21:39:24.999Z,22.93
2022-08-11T21:42:12.660Z,22.76
2022-08-11T21:45:01.862Z,22.68
2022-08-11T21:47:49.507Z,22.65
2022-08-11T21:50:46.701Z,22.60
2022-08-11T21:53:33.204Z,22.61
2022-08-11T21:56:20.027Z,22.61
2022-08-11T21:59:08.858Z,22.58
2022-08-11T22:01:56.638Z,22.61
2022-08-11T22:04:44.091Z,22.57
2022-08-11T22:07:30.838Z,22.60
2022-08-11T22:10:41.562Z,22.51
2022-08-11T22:13:25.976Z,22.51
2022-08-11T22:16:11.946Z,22.35
2022-08-11T22:19:01.197Z,22.24
2022-08-11T22:22:03.816Z,22.16
2022-08-11T22:24:51.696Z,22.11
2022-08-11T22:27:37.251Z,22.01
2022-08-11T22:30:24.934Z,22.00
2022-08-11T22:33:11.712Z,22.03
2022-08-11T22:36:00.372Z,22.07
2022-08-11T22:38:47.014Z,21.98
2022-08-11T22:41:32.832Z,21.95
2022-08-11T22:44:18.191Z,21.94
2022-08-11T22:47:04.275Z,21.91
2022-08-11T22:49:57.883Z,21.86
2022-08-11T22:52:47.696Z,21.89
2022-08-11T22:55:33.655Z,21.76
2022-08-11T22:58:20.728Z,21.72
2022-08-11T23:01:07.297Z,21.72
2022-08-11T23:03:53.626Z,21.65
2022-08-11T23:06:40.114Z,21.64
2022-08-11T23:09:28.299Z,21.52
2022-08-11T23:12:14.522Z,21.62
2022-08-11T23:15:00.630Z,21.68
2022-08-11T23:17:46.730Z,21.79
2022-08-11T23:20:41.271Z,21.85
2022-08-11T23:23:36.556Z,21.91
2022-08-11T23:26:24.696Z,21.98
2022-08-11T23:29:11.690Z,22.02
2022-08-11T23:31:57.803Z,21.97
2022-08-11T23:35:04.062Z,21.92
2022-08-11T23:37:54.079Z,21.91
2022-08-11T23:40:39.891Z,21.92
2022-08-11T23:43:27.089Z,21.88
2022-08-11T23:46:12.702Z,21.89
2022-08-11T23:49:00.403Z,21.85
2022-08-11T23:51:47.562Z,21.80
2022-08-11T23:54:37.324Z,21.75
2022-08-11T23:57:23.930Z,21.74
